Time;durP1;ratioP1;P1;durP2;ratioP2;P2;SDS_P1;SDS_P2;PMS_P1;PMS_P2;Temp;Humidity;BMP_temperature;BMP_pressure;BME280_temperature;BME280_humidity;BME280_pressure;Samples;Min_cycle;Max_cycle;Signal;HPM_P1;HPM_P2
2022/03/26 00:01:51;;;;;;;39.10;27.17;;;5.80;99.90;;;;;;5130611;27;20055;-65
2022/03/26 00:04:17;;;;;;;45.65;28.67;;;5.80;99.90;;;;;;5103175;27;20024;-65
2022/03/26 00:06:43;;;;;;;44.40;29.02;;;5.80;99.90;;;;;;5105310;27;20055;-66
2022/03/26 00:09:08;;;;;;;55.97;31.77;;;5.80;99.90;;;;;;5103721;27;20039;-65
2022/03/26 00:11:34;;;;;;;45.17;30.27;;;5.80;99.90;;;;;;5101582;28;20379;-65
2022/03/26 00:14:00;;;;;;;50.15;30.60;;;5.70;99.90;;;;;;5101686;27;20107;-65
2022/03/26 00:16:25;;;;;;;46.38;30.60;;;5.70;99.90;;;;;;5101434;28;20044;-66
2022/03/26 00:18:51;;;;;;;52.05;31.42;;;5.80;99.90;;;;;;5101864;28;20032;-65
2022/03/26 00:21:17;;;;;;;53.22;35.25;;;5.70;99.90;;;;;;5103791;28;20039;-65
2022/03/26 00:23:43;;;;;;;62.17;37.10;;;5.80;99.90;;;;;;5100314;28;20042;-65
2022/03/26 00:26:12;;;;;;;69.57;41.85;;;5.80;99.90;;;;;;5102194;28;20516;-66
2022/03/26 00:28:38;;;;;;;69.45;43.00;;;5.70;99.90;;;;;;5130034;27;20494;-66
2022/03/26 00:31:04;;;;;;;61.80;36.90;;;5.80;99.90;;;;;;5118322;27;20039;-66
2022/03/26 00:33:31;;;;;;;55.22;33.88;;;5.80;99.90;;;;;;5103296;27;20040;-65
2022/03/26 00:35:58;;;;;;;60.22;38.30;;;5.80;99.90;;;;;;5102065;28;20390;-66
2022/03/26 00:38:23;;;;;;;51.67;31.90;;;5.80;99.90;;;;;;5102737;28;20066;-66
2022/03/26 00:40:49;;;;;;;42.40;27.63;;;5.80;99.90;;;;;;5104538;28;20498;-66
2022/03/26 00:43:15;;;;;;;43.45;27.92;;;5.80;99.90;;;;;;5123892;27;20031;-66
2022/03/26 00:45:42;;;;;;;55.55;32.63;;;5.80;99.90;;;;;;5104794;28;20069;-66
2022/03/26 00:48:08;;;;;;;48.28;28.60;;;5.80;99.90;;;;;;5100059;28;20135;-66
2022/03/26 00:50:34;;;;;;;41.25;24.40;;;5.70;99.90;;;;;;5103073;28;20561;-66
2022/03/26 00:53:00;;;;;;;45.03;27.52;;;5.70;99.90;;;;;;5104542;28;20043;-66
2022/03/26 00:55:25;;;;;;;44.10;26.42;;;5.70;99.90;;;;;;5101792;27;20082;-66
2022/03/26 00:57:51;;;;;;;44.78;27.33;;;5.60;99.90;;;;;;5100659;27;20035;-66
2022/03/26 01:00:17;;;;;;;42.97;26.85;;;5.60;99.90;;;;;;5102699;27;20063;-66
2022/03/26 01:02:43;;;;;;;44.42;27.48;;;5.60;99.90;;;;;;5102314;28;20126;-66
2022/03/26 01:05:10;;;;;;;39.42;23.60;;;5.50;99.90;;;;;;5100936;28;20082;-66
2022/03/26 01:07:36;;;;;;;41.50;26.27;;;5.50;99.90;;;;;;5099529;28;20043;-66
2022/03/26 01:10:04;;;;;;;47.08;27.45;;;5.50;99.90;;;;;;5102074;28;20036;-66
2022/03/26 01:12:30;;;;;;;45.72;27.48;;;5.50;99.90;;;;;;5101388;28;20048;-66
2022/03/26 01:14:55;;;;;;;57.97;36.85;;;5.40;99.90;;;;;;5098087;27;20555;-66
2022/03/26 01:17:22;;;;;;;56.83;34.33;;;5.40;99.90;;;;;;5101053;28;20044;-66
2022/03/26 01:19:48;;;;;;;41.20;26.88;;;5.40;99.90;;;;;;5099633;28;20089;-66
2022/03/26 01:22:13;;;;;;;42.33;28.58;;;5.40;99.90;;;;;;5099366;28;20036;-66
2022/03/26 01:24:40;;;;;;;48.78;30.85;;;5.40;99.90;;;;;;5102371;28;20046;-66
2022/03/26 01:27:06;;;;;;;36.63;23.55;;;5.40;99.90;;;;;;5100626;28;20040;-66
2022/03/26 01:29:33;;;;;;;37.03;22.23;;;5.30;99.90;;;;;;5099446;28;20040;-66
2022/03/26 01:31:58;;;;;;;47.53;28.35;;;5.30;99.90;;;;;;5102183;28;20040;-66
2022/03/26 01:34:26;;;;;;;52.65;33.88;;;5.30;99.90;;;;;;5101003;28;20042;-66
2022/03/26 01:36:51;;;;;;;38.35;26.33;;;5.30;99.90;;;;;;5105165;28;20047;-66
2022/03/26 01:39:20;;;;;;;44.10;26.58;;;5.20;99.90;;;;;;5096970;28;20469;-66
2022/03/26 01:41:46;;;;;;;49.08;30.75;;;5.20;99.90;;;;;;5096819;28;20059;-66
2022/03/26 01:44:13;;;;;;;47.80;28.98;;;5.20;99.90;;;;;;5099391;28;20078;-65
2022/03/26 01:46:53;;;;;;;53.55;32.30;;;5.10;99.90;;;;;;5131918;27;20032;-65
2022/03/26 01:49:19;;;;;;;46.20;27.60;;;5.10;99.90;;;;;;5096598;28;20039;-66
2022/03/26 01:51:46;;;;;;;39.30;25.48;;;5.10;99.90;;;;;;5095678;28;20044;-66
2022/03/26 01:54:13;;;;;;;45.25;24.80;;;5.00;99.90;;;;;;5099006;28;20050;-66
2022/03/26 01:56:40;;;;;;;41.35;26.42;;;5.00;99.90;;;;;;5100199;28;20040;-66
2022/03/26 01:59:08;;;;;;;44.45;28.13;;;5.00;99.90;;;;;;5094808;28;20035;-66
2022/03/26 02:01:34;;;;;;;48.60;31.92;;;4.90;99.90;;;;;;5089054;28;20603;-66
2022/03/26 02:04:01;;;;;;;50.42;31.08;;;4.90;99.90;;;;;;5099354;28;20044;-66
2022/03/26 02:06:31;;;;;;;51.50;32.28;;;4.80;99.90;;;;;;5081034;28;20131;-66
2022/03/26 02:09:01;;;;;;;58.45;34.83;;;4.80;99.90;;;;;;5097532;28;20507;-66
2022/03/26 02:11:31;;;;;;;56.00;35.00;;;4.80;99.90;;;;;;5128208;27;20043;-66
2022/03/26 02:13:57;;;;;;;63.53;35.88;;;4.90;99.90;;;;;;5125913;27;20097;-66
2022/03/26 02:16:24;;;;;;;51.67;33.08;;;4.80;99.90;;;;;;5096912;28;20043;-66
2022/03/26 02:18:51;;;;;;;57.33;33.05;;;4.80;99.90;;;;;;5102152;28;20050;-66
2022/03/26 02:21:18;;;;;;;63.85;35.25;;;4.80;99.90;;;;;;5100048;28;20031;-66
2022/03/26 02:23:46;;;;;;;65.28;36.40;;;4.80;99.90;;;;;;5098133;28;20046;-66
2022/03/26 02:26:16;;;;;;;63.33;36.58;;;4.80;99.90;;;;;;5100507;28;20065;-66
2022/03/26 02:28:44;;;;;;;65.13;36.47;;;4.80;99.90;;;;;;5098518;28;20047;-66
2022/03/26 02:31:13;;;;;;;58.95;35.15;;;4.80;99.90;;;;;;5097398;28;20082;-66
2022/03/26 02:33:39;;;;;;;66.30;37.50;;;4.70;99.90;;;;;;5101648;28;20047;-66
2022/03/26 02:36:05;;;;;;;64.75;38.40;;;4.70;99.90;;;;;;5099461;28;20051;-66
2022/03/26 02:38:32;;;;;;;60.45;36.63;;;4.80;99.90;;;;;;5097860;28;20040;-66
2022/03/26 02:40:57;;;;;;;62.03;37.53;;;4.50;99.90;;;;;;5099419;28;20044;-66
2022/03/26 02:43:23;;;;;;;68.20;40.60;;;4.50;99.90;;;;;;5102171;28;20040;-66
2022/03/26 02:45:49;;;;;;;70.43;40.88;;;4.50;99.90;;;;;;5100396;28;20047;-66
2022/03/26 02:48:15;;;;;;;67.68;40.15;;;4.50;99.90;;;;;;5099088;28;20701;-66
2022/03/26 02:50:44;;;;;;;73.22;40.90;;;4.40;99.90;;;;;;5100023;28;20074;-66
2022/03/26 02:53:11;;;;;;;69.28;37.90;;;4.50;99.90;;;;;;5079949;28;20079;-66
2022/03/26 02:55:38;;;;;;;63.35;38.95;;;4.50;99.90;;;;;;5099861;28;20044;-66
2022/03/26 02:58:05;;;;;;;65.55;36.72;;;4.50;99.90;;;;;;5098462;28;20394;-66
2022/03/26 03:00:32;;;;;;;58.80;36.45;;;4.50;99.90;;;;;;5096198;28;20079;-66
2022/03/26 03:02:58;;;;;;;65.05;37.78;;;4.40;99.90;;;;;;5099513;28;20035;-66
2022/03/26 03:05:24;;;;;;;60.15;35.45;;;4.50;99.90;;;;;;5096540;28;20040;-66
2022/03/26 03:07:50;;;;;;;68.28;37.05;;;4.40;99.90;;;;;;5102620;28;20488;-66
2022/03/26 03:10:17;;;;;;;57.97;33.72;;;4.40;99.90;;;;;;5096906;28;20074;-66
2022/03/26 03:12:46;;;;;;;59.45;33.60;;;4.50;99.90;;;;;;5080091;28;20040;-66
2022/03/26 03:15:14;;;;;;;53.05;31.27;;;4.40;99.90;;;;;;5098270;28;20040;-66
2022/03/26 03:17:41;;;;;;;57.22;31.45;;;4.40;99.90;;;;;;5129221;27;20398;-66
2022/03/26 03:20:08;;;;;;;58.78;31.67;;;4.40;99.90;;;;;;5101425;28;20126;-66
2022/03/26 03:22:35;;;;;;;53.03;31.58;;;4.40;99.90;;;;;;5103230;28;20409;-66
2022/03/26 03:25:03;;;;;;;57.38;34.15;;;4.40;99.90;;;;;;5100987;28;20036;-66
2022/03/26 03:27:29;;;;;;;69.45;35.28;;;4.40;99.90;;;;;;5132511;27;20043;-66
2022/03/26 03:29:55;;;;;;;46.47;29.48;;;4.40;99.90;;;;;;5101345;28;20171;-65
2022/03/26 03:32:20;;;;;;;54.53;30.50;;;4.40;99.90;;;;;;5104343;27;20144;-66
2022/03/26 03:34:46;;;;;;;38.47;24.10;;;4.40;99.90;;;;;;5103475;27;20485;-66
2022/03/26 03:37:11;;;;;;;46.70;26.90;;;4.40;99.90;;;;;;5101775;27;20103;-66
2022/03/26 03:39:37;;;;;;;40.08;25.55;;;4.40;99.90;;;;;;5100368;28;20079;-66
2022/03/26 03:42:04;;;;;;;45.75;26.85;;;4.30;99.90;;;;;;5102322;28;20469;-66
2022/03/26 03:44:30;;;;;;;47.00;27.85;;;4.30;99.90;;;;;;5101143;28;20055;-66
2022/03/26 03:46:56;;;;;;;58.85;32.38;;;4.30;99.90;;;;;;5103650;27;21499;-65
2022/03/26 03:49:30;;;;;;;56.28;34.08;;;4.30;99.90;;;;;;5103407;28;20044;-65
2022/03/26 03:51:55;;;;;;;49.95;29.95;;;4.30;99.90;;;;;;5104115;28;20119;-65
2022/03/26 03:54:21;;;;;;;59.38;33.22;;;4.30;99.90;;;;;;5106208;28;20126;-65
2022/03/26 03:56:46;;;;;;;64.30;35.97;;;4.30;99.90;;;;;;5131883;27;20040;-65
2022/03/26 03:59:12;;;;;;;71.43;39.40;;;4.20;99.90;;;;;;5101883;28;20055;-65
2022/03/26 04:01:38;;;;;;;68.13;38.15;;;4.30;99.90;;;;;;5101221;28;20040;-66
2022/03/26 04:04:03;;;;;;;75.22;42.42;;;4.30;99.90;;;;;;5103127;27;20494;-65
2022/03/26 04:06:29;;;;;;;76.15;42.17;;;4.30;99.90;;;;;;5106887;28;20056;-66
2022/03/26 04:08:55;;;;;;;72.40;39.72;;;4.20;99.90;;;;;;5084386;28;20047;-66
2022/03/26 04:11:20;;;;;;;66.70;39.35;;;4.20;99.90;;;;;;5104109;28;20080;-66
2022/03/26 04:13:52;;;;;;;62.20;36.72;;;4.20;99.90;;;;;;5103691;28;20040;-66
2022/03/26 04:16:19;;;;;;;61.58;35.78;;;4.20;99.90;;;;;;5104093;28;20039;-66
2022/03/26 04:18:44;;;;;;;80.88;44.58;;;4.20;99.90;;;;;;5102693;28;20034;-66
2022/03/26 04:21:10;;;;;;;73.53;38.20;;;4.10;99.90;;;;;;5102945;28;20115;-65
2022/03/26 04:23:36;;;;;;;68.45;37.92;;;4.10;99.90;;;;;;5101247;28;20043;-65
2022/03/26 04:26:01;;;;;;;68.30;37.63;;;4.10;99.90;;;;;;5102581;28;20138;-65
2022/03/26 04:28:27;;;;;;;68.70;38.88;;;4.10;99.90;;;;;;5101205;27;20044;-65
2022/03/26 04:30:53;;;;;;;70.53;36.00;;;4.10;99.90;;;;;;5101489;28;20039;-66
2022/03/26 04:33:19;;;;;;;56.85;34.33;;;4.10;99.90;;;;;;5105784;27;20513;-65
2022/03/26 04:35:44;;;;;;;59.00;35.38;;;4.10;99.90;;;;;;5103413;27;22014;-65
2022/03/26 04:38:10;;;;;;;64.65;37.10;;;4.10;99.90;;;;;;5100911;27;20051;-65
2022/03/26 04:40:35;;;;;;;81.28;45.22;;;4.00;99.90;;;;;;5103727;28;20035;-65
2022/03/26 04:43:01;;;;;;;74.50;41.42;;;4.00;99.90;;;;;;5102238;27;20058;-65
2022/03/26 04:45:29;;;;;;;95.90;43.83;;;4.00;99.90;;;;;;5099656;28;20048;-65
2022/03/26 04:47:55;;;;;;;78.93;44.90;;;4.10;99.90;;;;;;5101198;27;20498;-65
2022/03/26 04:50:21;;;;;;;75.90;42.70;;;4.00;99.90;;;;;;5103357;28;20035;-65
2022/03/26 04:52:48;;;;;;;83.85;43.30;;;3.90;99.90;;;;;;5097709;28;20115;-65
2022/03/26 04:55:14;;;;;;;67.25;38.70;;;4.00;99.90;;;;;;5102362;28;20044;-65
2022/03/26 04:57:41;;;;;;;71.32;39.97;;;3.90;99.90;;;;;;5099781;28;20039;-65
2022/03/26 05:00:09;;;;;;;76.57;43.13;;;3.90;99.90;;;;;;5101106;28;20478;-65
2022/03/26 05:02:39;;;;;;;82.20;42.88;;;3.90;99.90;;;;;;5099072;28;20049;-65
2022/03/26 05:05:06;;;;;;;95.45;50.28;;;3.90;99.90;;;;;;5104041;27;20053;-65
2022/03/26 05:07:47;;;;;;;79.70;45.88;;;3.80;99.90;;;;;;5104050;28;20139;-65
2022/03/26 05:10:23;;;;;;;93.50;52.80;;;3.70;99.90;;;;;;5099829;28;20075;-66
2022/03/26 05:12:50;;;;;;;115.85;60.85;;;2.90;99.90;;;;;;5101513;28;20039;-66
2022/03/26 05:15:18;;;;;;;121.85;64.43;;;3.70;99.90;;;;;;5107303;28;20063;-66
2022/03/26 05:17:45;;;;;;;134.77;67.97;;;3.70;99.90;;;;;;5105128;27;20059;-66
2022/03/26 05:20:14;;;;;;;151.15;74.03;;;3.80;99.90;;;;;;5104239;28;20697;-65
2022/03/26 05:22:47;;;;;;;150.50;74.25;;;3.80;99.90;;;;;;5104481;27;20042;-65
2022/03/26 05:25:15;;;;;;;141.95;71.13;;;3.80;99.90;;;;;;5099721;28;20032;-65
2022/03/26 05:27:45;;;;;;;156.35;74.18;;;3.90;99.90;;;;;;5104153;28;20051;-65
2022/03/26 05:30:12;;;;;;;143.48;70.80;;;3.90;99.90;;;;;;5128485;27;20040;-65
2022/03/26 05:32:38;;;;;;;153.32;77.70;;;4.00;99.90;;;;;;5101762;28;20036;-65
2022/03/26 05:35:11;;;;;;;140.00;73.07;;;4.10;99.90;;;;;;5101707;28;20512;-65
2022/03/26 05:37:38;;;;;;;119.97;67.68;;;4.20;99.90;;;;;;5102142;27;20044;-65
2022/03/26 05:40:05;;;;;;;119.65;64.93;;;4.20;99.90;;;;;;5105587;27;20450;-65
2022/03/26 05:42:30;;;;;;;133.10;68.70;;;4.30;99.90;;;;;;5102203;27;20489;-65
2022/03/26 05:44:57;;;;;;;110.43;60.03;;;4.30;99.90;;;;;;5102331;28;20070;-65
2022/03/26 05:47:23;;;;;;;111.65;62.72;;;4.40;99.90;;;;;;5129600;27;20123;-65
2022/03/26 05:49:49;;;;;;;123.55;67.50;;;4.50;99.90;;;;;;5101923;28;20052;-66
2022/03/26 05:52:16;;;;;;;106.95;62.90;;;4.60;99.90;;;;;;5104306;27;20032;-65
2022/03/26 05:54:42;;;;;;;110.55;64.78;;;4.70;99.90;;;;;;5130634;27;20048;-65
2022/03/26 05:57:08;;;;;;;107.95;62.95;;;4.90;99.90;;;;;;5129801;27;20039;-65
2022/03/26 05:59:33;;;;;;;107.80;62.53;;;5.10;99.90;;;;;;5129135;27;20039;-65
2022/03/26 06:01:59;;;;;;;117.10;70.97;;;5.50;99.90;;;;;;5099622;28;20039;-65
2022/03/26 06:04:27;;;;;;;103.80;63.28;;;6.10;99.90;;;;;;5105567;27;20724;-65
2022/03/26 06:06:52;;;;;;;115.15;68.20;;;6.60;99.90;;;;;;5098320;28;20100;-65
2022/03/26 06:09:18;;;;;;;104.90;64.00;;;7.40;99.90;;;;;;5098577;27;20044;-65
2022/03/26 06:11:44;;;;;;;107.13;65.00;;;8.00;99.90;;;;;;5096589;27;20465;-66
2022/03/26 06:14:09;;;;;;;104.88;67.65;;;8.80;99.90;;;;;;5081008;28;20043;-66
2022/03/26 06:16:35;;;;;;;117.00;71.72;;;9.50;99.90;;;;;;5104374;27;20662;-66
2022/03/26 06:19:01;;;;;;;115.25;72.72;;;10.20;99.90;;;;;;5101109;27;20490;-66
2022/03/26 06:21:29;;;;;;;117.88;70.05;;;11.00;99.90;;;;;;5077255;28;20036;-66
2022/03/26 06:23:58;;;;;;;102.43;66.20;;;11.80;99.90;;;;;;5097034;28;20036;-66
2022/03/26 06:26:23;;;;;;;107.50;67.18;;;12.70;99.90;;;;;;5095742;28;20036;-66
2022/03/26 06:28:50;;;;;;;106.68;70.18;;;13.50;99.30;;;;;;5114031;28;20402;-66
2022/03/26 06:31:16;;;;;;;106.22;68.55;;;14.40;96.10;;;;;;5097779;28;20478;-66
2022/03/26 06:33:42;;;;;;;101.95;70.05;;;15.20;92.70;;;;;;5100372;28;20047;-66
2022/03/26 06:36:08;;;;;;;105.53;74.55;;;15.90;89.60;;;;;;5092629;28;20048;-66
2022/03/26 06:38:38;;;;;;;105.05;70.38;;;16.70;83.50;;;;;;5079016;28;20044;-66
2022/03/26 06:41:11;;;;;;;100.05;69.57;;;17.50;79.10;;;;;;5097977;28;20119;-66
2022/03/26 06:43:42;;;;;;;94.40;68.00;;;18.40;73.90;;;;;;5098106;28;20035;-66
2022/03/26 06:46:08;;;;;;;100.28;74.32;;;19.20;70.40;;;;;;5094651;28;20050;-66
2022/03/26 06:48:35;;;;;;;103.32;74.88;;;20.00;66.80;;;;;;5096539;28;20044;-66
2022/03/26 06:51:01;;;;;;;104.65;75.55;;;20.70;63.20;;;;;;5094726;28;20512;-66
2022/03/26 06:53:29;;;;;;;96.18;73.90;;;21.50;60.30;;;;;;5098392;28;20044;-66
2022/03/26 06:55:55;;;;;;;98.97;75.18;;;22.20;57.60;;;;;;5098744;28;20155;-66
2022/03/26 06:58:21;;;;;;;99.05;71.80;;;22.60;55.50;;;;;;5115836;27;20127;-66
2022/03/26 07:00:47;;;;;;;96.50;71.53;;;23.00;54.00;;;;;;5099572;28;20028;-66
2022/03/26 07:03:13;;;;;;;92.85;72.30;;;22.90;53.10;;;;;;5101906;28;20089;-66
2022/03/26 07:05:39;;;;;;;97.90;74.53;;;22.30;53.10;;;;;;5128669;27;21088;-67
2022/03/26 07:08:05;;;;;;;102.03;73.25;;;21.80;53.30;;;;;;5098914;27;20033;-66
2022/03/26 07:10:31;;;;;;;94.50;71.43;;;21.30;53.80;;;;;;5097735;28;20040;-66
2022/03/26 07:12:57;;;;;;;91.45;71.93;;;20.80;54.20;;;;;;5097705;28;20039;-66
2022/03/26 07:15:23;;;;;;;90.72;67.68;;;20.40;55.40;;;;;;5103291;28;20040;-66
2022/03/26 07:17:48;;;;;;;92.93;66.18;;;20.20;55.90;;;;;;5097107;28;20036;-66
2022/03/26 07:20:14;;;;;;;91.45;69.50;;;19.90;56.50;;;;;;5099064;28;20127;-66
2022/03/26 07:22:41;;;;;;;98.22;69.97;;;19.80;57.40;;;;;;5101463;27;20071;-66
2022/03/26 07:25:22;;;;;;;86.25;64.97;;;20.10;57.50;;;;;;5097386;28;20089;-66
2022/03/26 07:27:48;;;;;;;87.85;65.00;;;20.30;56.20;;;;;;5095800;28;20478;-66
2022/03/26 07:30:14;;;;;;;87.22;67.03;;;20.00;56.30;;;;;;5100888;28;20035;-66
2022/03/26 07:32:40;;;;;;;85.07;62.58;;;19.60;58.00;;;;;;5103367;28;20104;-66
2022/03/26 07:35:06;;;;;;;80.90;65.53;;;19.20;59.10;;;;;;5097012;28;20145;-66
2022/03/26 07:37:32;;;;;;;85.95;62.90;;;18.80;59.90;;;;;;5099832;28;20093;-67
2022/03/26 07:39:59;;;;;;;80.65;58.45;;;18.50;60.70;;;;;;5100709;28;20051;-66
2022/03/26 07:42:28;;;;;;;77.75;57.85;;;18.00;61.80;;;;;;5098734;27;20048;-66
2022/03/26 07:44:54;;;;;;;77.60;59.80;;;17.80;62.50;;;;;;5101736;28;20040;-66
2022/03/26 07:47:20;;;;;;;81.78;59.03;;;17.40;62.50;;;;;;5096792;27;20097;-65
2022/03/26 07:49:46;;;;;;;82.13;59.97;;;17.00;62.80;;;;;;5099266;28;20028;-66
2022/03/26 07:52:12;;;;;;;83.00;56.47;;;16.60;64.10;;;;;;5099389;28;20101;-66
2022/03/26 07:54:38;;;;;;;70.75;53.08;;;16.10;65.20;;;;;;5127139;27;20071;-66
2022/03/26 07:57:04;;;;;;;67.82;53.53;;;15.90;66.10;;;;;;5098397;28;20032;-66
2022/03/26 07:59:31;;;;;;;75.68;53.58;;;15.70;66.80;;;;;;5085451;28;20036;-66
2022/03/26 08:01:56;;;;;;;74.07;52.95;;;15.60;67.10;;;;;;5100160;28;20040;-66
2022/03/26 08:04:22;;;;;;;77.13;53.65;;;15.50;68.00;;;;;;5097704;27;20031;-66
2022/03/26 08:06:48;;;;;;;69.40;48.85;;;15.40;68.30;;;;;;5100680;28;20056;-66
2022/03/26 08:09:13;;;;;;;70.65;48.28;;;15.30;68.80;;;;;;5098263;28;20698;-66
2022/03/26 08:11:39;;;;;;;67.35;51.22;;;15.10;68.20;;;;;;5100049;28;20082;-66
2022/03/26 08:14:05;;;;;;;66.72;48.35;;;15.10;69.00;;;;;;5105047;28;20375;-66
2022/03/26 08:16:30;;;;;;;63.70;44.70;;;15.10;69.60;;;;;;5099459;27;20065;-66
2022/03/26 08:18:56;;;;;;;59.92;43.30;;;15.10;70.00;;;;;;5130555;27;20027;-66
2022/03/26 08:21:22;;;;;;;61.95;41.00;;;15.10;69.40;;;;;;5099372;27;20034;-67
2022/03/26 08:23:48;;;;;;;66.07;40.45;;;15.20;68.90;;;;;;5104141;28;20040;-67
2022/03/26 08:26:19;;;;;;;60.28;40.92;;;15.30;69.50;;;;;;5098257;28;20051;-67
2022/03/26 08:28:45;;;;;;;63.63;42.30;;;15.40;70.00;;;;;;5131846;27;20059;-67
2022/03/26 08:31:13;;;;;;;54.00;36.78;;;15.60;70.00;;;;;;5101389;28;20070;-67
2022/03/26 08:33:41;;;;;;;68.13;42.40;;;15.80;70.20;;;;;;5098348;28;20048;-67
2022/03/26 08:36:09;;;;;;;60.80;41.28;;;15.80;68.80;;;;;;5128144;27;20051;-67
2022/03/26 08:38:34;;;;;;;58.42;41.08;;;16.00;67.70;;;;;;5128410;27;20089;-67
2022/03/26 08:41:00;;;;;;;59.17;41.92;;;16.10;68.50;;;;;;5098816;28;20036;-67
2022/03/26 08:43:26;;;;;;;65.20;42.58;;;16.20;69.30;;;;;;5100903;28;20067;-67
2022/03/26 08:45:52;;;;;;;58.80;38.65;;;16.50;68.90;;;;;;5098761;28;20044;-67
2022/03/26 08:48:17;;;;;;;64.53;40.08;;;16.60;68.10;;;;;;5099368;28;20067;-67
2022/03/26 08:50:43;;;;;;;54.35;37.75;;;16.80;67.90;;;;;;5100402;27;20494;-67
2022/03/26 08:53:10;;;;;;;54.58;39.17;;;16.80;67.60;;;;;;5097448;28;20486;-67
2022/03/26 08:55:36;;;;;;;56.95;39.53;;;17.00;67.80;;;;;;5096201;28;20044;-67
2022/03/26 08:58:02;;;;;;;58.45;40.25;;;17.00;67.40;;;;;;5100301;28;20044;-67
2022/03/26 09:00:28;;;;;;;60.30;41.55;;;17.10;65.70;;;;;;5098824;28;20161;-67
2022/03/26 09:02:55;;;;;;;59.35;40.65;;;17.30;65.90;;;;;;5097792;28;20047;-67
2022/03/26 09:05:20;;;;;;;55.80;41.60;;;17.40;65.80;;;;;;5097898;28;20031;-67
2022/03/26 09:07:46;;;;;;;59.65;41.08;;;17.50;65.30;;;;;;5100802;28;20512;-67
2022/03/26 09:10:12;;;;;;;50.65;35.80;;;17.70;65.10;;;;;;5124958;27;20039;-67
2022/03/26 09:12:38;;;;;;;56.25;35.55;;;17.90;65.50;;;;;;5094151;28;20082;-67
2022/03/26 09:15:07;;;;;;;47.95;31.65;;;18.00;64.30;;;;;;5098431;28;20422;-67
2022/03/26 09:17:33;;;;;;;46.85;30.48;;;18.10;63.50;;;;;;5099299;28;20055;-67
2022/03/26 09:19:59;;;;;;;47.92;32.42;;;18.10;62.50;;;;;;5098590;27;20049;-67
2022/03/26 09:22:24;;;;;;;52.70;34.55;;;18.10;62.40;;;;;;5130282;27;20493;-67
2022/03/26 09:24:51;;;;;;;51.30;36.85;;;18.30;63.50;;;;;;5097309;28;20393;-67
2022/03/26 09:27:17;;;;;;;50.92;35.67;;;18.30;63.30;;;;;;5099150;28;20747;-67
2022/03/26 09:29:45;;;;;;;50.35;34.15;;;18.20;63.30;;;;;;5099066;28;20035;-67
2022/03/26 09:32:11;;;;;;;47.42;33.42;;;18.30;63.20;;;;;;5132393;27;20051;-67
2022/03/26 09:34:36;;;;;;;54.47;32.92;;;18.40;63.10;;;;;;5102780;27;20032;-67
2022/03/26 09:37:02;;;;;;;41.47;31.88;;;18.40;62.90;;;;;;5128753;27;20050;-67
2022/03/26 09:39:28;;;;;;;47.35;31.35;;;18.50;63.30;;;;;;5098822;28;20031;-67
2022/03/26 09:41:55;;;;;;;44.80;29.67;;;18.60;63.50;;;;;;5130343;27;20339;-67
2022/03/26 09:44:22;;;;;;;42.85;30.30;;;18.60;63.10;;;;;;5102541;28;20386;-67
2022/03/26 09:46:48;;;;;;;36.83;24.08;;;18.60;63.70;;;;;;5099157;28;20063;-67
2022/03/26 09:49:14;;;;;;;39.05;25.98;;;18.70;64.00;;;;;;5098007;28;20047;-67
2022/03/26 09:51:41;;;;;;;40.03;25.67;;;18.90;63.40;;;;;;5097650;28;20054;-68
2022/03/26 09:54:08;;;;;;;36.67;22.83;;;18.90;62.60;;;;;;5098347;28;20039;-67
2022/03/26 09:56:34;;;;;;;30.73;20.83;;;19.00;63.20;;;;;;5100482;28;20443;-68
2022/03/26 09:59:00;;;;;;;31.10;21.10;;;19.10;63.50;;;;;;5099038;28;20119;-67
2022/03/26 10:01:27;;;;;;;33.10;22.20;;;19.20;64.40;;;;;;5097699;28;20436;-67
2022/03/26 10:04:13;;;;;;;29.13;19.15;;;19.10;63.30;;;;;;5100902;28;20036;-67
2022/03/26 10:06:59;;;;;;;25.80;17.92;;;19.20;64.50;;;;;;5101316;28;20040;-67
2022/03/26 10:09:34;;;;;;;;;;;19.20;65.30;;;;;;5099201;28;20056;-67
2022/03/26 10:12:03;;;;;;;29.85;20.65;;;19.30;66.40;;;;;;5097756;28;19987;-67
2022/03/26 10:14:55;;;;;;;28.92;21.63;;;19.20;65.40;;;;;;5100751;28;20051;-67
2022/03/26 10:17:32;;;;;;;29.67;21.95;;;19.30;66.10;;;;;;5100352;28;20082;-67
2022/03/26 10:20:00;;;;;;;30.23;19.77;;;19.20;65.20;;;;;;5099535;28;20035;-67
2022/03/26 10:22:43;;;;;;;25.95;17.85;;;19.40;65.40;;;;;;5101093;28;20519;-67
2022/03/26 10:25:21;;;;;;;23.38;15.93;;;19.50;65.10;;;;;;5130884;27;20520;-67
2022/03/26 10:27:48;;;;;;;21.70;15.95;;;19.50;61.90;;;;;;5096982;28;20036;-69
2022/03/26 10:30:16;;;;;;;25.70;18.55;;;19.30;64.50;;;;;;5100944;28;20039;-69
2022/03/26 10:32:49;;;;;;;23.80;17.40;;;19.30;66.50;;;;;;5101139;28;20050;-69
2022/03/26 10:35:27;;;;;;;15.15;11.20;;;19.30;66.00;;;;;;5100539;28;20065;-69
2022/03/26 10:37:58;;;;;;;19.17;13.23;;;19.60;64.70;;;;;;5097779;28;20044;-69
2022/03/26 10:40:27;;;;;;;21.75;13.85;;;19.70;65.00;;;;;;5098394;28;20079;-69
2022/03/26 10:43:09;;;;;;;14.55;12.45;;;19.80;63.80;;;;;;5127298;27;20042;-70
2022/03/26 10:45:37;;;;;;;15.80;11.52;;;19.80;63.00;;;;;;5100347;28;20416;-69
2022/03/26 10:48:08;;;;;;;16.13;12.82;;;19.80;61.40;;;;;;5096808;28;20448;-69
2022/03/26 10:50:35;;;;;;;16.70;12.63;;;19.60;61.80;;;;;;5097726;28;20044;-69
2022/03/26 10:53:13;;;;;;;15.95;10.80;;;19.50;64.60;;;;;;5083203;28;20040;-69
2022/03/26 10:55:40;;;;;;;16.55;11.27;;;19.60;64.10;;;;;;5099532;28;20039;-70
2022/03/26 10:58:07;;;;;;;16.48;12.02;;;19.70;64.40;;;;;;5098690;28;20051;-69
2022/03/26 11:00:33;;;;;;;16.23;10.63;;;19.80;63.60;;;;;;5101169;28;20126;-69
2022/03/26 11:02:59;;;;;;;13.40;10.05;;;19.90;63.70;;;;;;5104162;27;20423;-70
2022/03/26 11:05:26;;;;;;;13.98;10.05;;;20.00;63.80;;;;;;5080457;28;20108;-69
2022/03/26 11:07:53;;;;;;;15.88;10.82;;;20.10;63.50;;;;;;5097188;28;20042;-69
2022/03/26 11:10:19;;;;;;;18.25;12.65;;;20.30;63.10;;;;;;5100743;28;20040;-70
2022/03/26 11:12:46;;;;;;;12.20;10.45;;;20.20;64.10;;;;;;5096897;28;20054;-70
2022/03/26 11:15:18;;;;;;;22.27;16.95;;;20.20;63.00;;;;;;5100155;28;20039;-69
2022/03/26 11:18:06;;;;;;;18.77;14.00;;;20.30;63.30;;;;;;5126994;27;20044;-70
2022/03/26 11:20:38;;;;;;;74.30;64.68;;;20.40;61.90;;;;;;5098319;28;20048;-68
2022/03/26 11:23:09;;;;;;;17.25;13.32;;;20.30;61.90;;;;;;5097509;28;20134;-69
2022/03/26 11:25:48;;;;;;;23.35;20.23;;;20.20;63.30;;;;;;5128459;27;20061;-69
2022/03/26 11:28:29;;;;;;;15.60;13.20;;;20.20;62.70;;;;;;5098378;28;20557;-70
2022/03/26 11:31:08;;;;;;;15.15;10.38;;;20.30;62.50;;;;;;5100690;28;20424;-69
2022/03/26 11:33:36;;;;;;;24.23;14.98;;;20.40;63.10;;;;;;5098835;28;20040;-69
2022/03/26 11:36:04;;;;;;;21.27;16.60;;;20.40;61.00;;;;;;5100073;28;20093;-70
2022/03/26 11:38:31;;;;;;;87.70;59.70;;;20.40;61.70;;;;;;5124951;27;20040;-69
2022/03/26 11:41:05;;;;;;;76.88;49.80;;;20.40;62.40;;;;;;5100293;28;20036;-69
2022/03/26 11:43:43;;;;;;;73.63;45.10;;;20.50;61.50;;;;;;5097612;27;20454;-69
2022/03/26 11:52:27;;;;;;;13.38;10.35;;;20.70;61.70;;;;;;5100767;28;20043;-70
2022/03/26 11:55:24;;;;;;;19.95;14.30;;;20.60;60.50;;;;;;5100402;28;20455;-69
2022/03/26 11:58:26;;;;;;;12.00;8.07;;;20.60;62.10;;;;;;5096377;27;20051;-69
2022/03/26 12:00:57;;;;;;;18.92;12.68;;;20.40;61.20;;;;;;5101205;27;20043;-70
2022/03/26 12:03:28;;;;;;;11.05;8.15;;;20.50;60.40;;;;;;5097618;28;20055;-70
2022/03/26 12:08:51;;;;;;;16.98;11.75;;;20.20;61.40;;;;;;5100985;28;20043;-70
2022/03/26 12:11:21;;;;;;;20.65;15.32;;;20.20;60.10;;;;;;5094310;28;20055;-70
2022/03/26 12:14:01;;;;;;;9.63;7.07;;;20.10;62.40;;;;;;5101187;27;20166;-70
2022/03/26 12:16:55;;;;;;;73.63;66.20;;;20.10;60.20;;;;;;5098242;28;20036;-70
2022/03/26 12:19:47;;;;;;;12.77;9.48;;;20.00;62.40;;;;;;5129888;27;20044;-70
2022/03/26 12:22:20;;;;;;;7.43;6.13;;;20.10;63.10;;;;;;5130693;27;20055;-70
2022/03/26 12:24:47;;;;;;;8.85;7.43;;;20.20;62.10;;;;;;5133530;27;20043;-70
2022/03/26 12:27:14;;;;;;;8.40;5.75;;;20.30;61.00;;;;;;5100194;28;20036;-70
2022/03/26 12:29:40;;;;;;;9.07;5.00;;;20.20;61.00;;;;;;5099441;27;20074;-70
2022/03/26 12:32:06;;;;;;;9.38;6.30;;;20.10;59.10;;;;;;5099631;28;20071;-70
2022/03/26 12:34:32;;;;;;;7.30;5.38;;;19.80;62.60;;;;;;5100680;27;20043;-70
2022/03/26 12:37:02;;;;;;;8.40;6.00;;;19.80;62.30;;;;;;5104088;28;20132;-70
2022/03/26 12:39:28;;;;;;;13.85;11.65;;;20.00;63.20;;;;;;5099794;28;20108;-70
2022/03/26 12:41:55;;;;;;;45.58;32.03;;;20.10;63.20;;;;;;5100525;28;20042;-70
2022/03/26 12:44:24;;;;;;;54.83;33.35;;;20.00;62.30;;;;;;5101393;28;20303;-70